Time;durP1;ratioP1;P1;durP2;ratioP2;P2;SDS_P1;SDS_P2;PMS_P1;PMS_P2;Temp;Humidity;BMP_temperature;BMP_pressure;BME280_temperature;BME280_humidity;BME280_pressure;Samples;Min_cycle;Max_cycle;Signal;HPM_P1;HPM_P2
2021/05/04 00:00:45;;;;;;;19.63;15.43;;;307.80;1587.20;;;;;;5073640;28;20365;-65
2021/05/04 00:03:11;;;;;;;21.55;16.13;;;307.70;1587.20;;;;;;5073639;28;20369;-64
2021/05/04 00:05:37;;;;;;;21.02;15.85;;;307.50;1612.80;;;;;;5073638;28;20602;-64
2021/05/04 00:08:04;;;;;;;21.60;15.70;;;307.60;1638.40;;;;;;5073832;28;20384;-64
2021/05/04 00:10:30;;;;;;;18.17;14.32;;;307.50;1638.40;;;;;;5073533;28;20499;-64
2021/05/04 00:12:56;;;;;;;19.35;15.15;;;307.50;1612.80;;;;;;5073605;28;20017;-64
2021/05/04 00:15:22;;;;;;;22.48;14.70;;;307.40;1638.40;;;;;;5073794;28;20364;-65
2021/05/04 00:17:48;;;;;;;19.35;14.38;;;307.40;1638.40;;;;;;5073475;28;20358;-64
2021/05/04 00:20:14;;;;;;;20.15;15.02;;;307.40;1638.40;;;;;;5073381;28;20376;-64
2021/05/04 00:22:40;;;;;;;21.75;14.52;;;307.30;1638.40;;;;;;5073386;28;20334;-64
2021/05/04 00:25:07;;;;;;;19.50;13.82;;;307.40;1612.80;;;;;;5073377;28;20472;-64
2021/05/04 00:27:33;;;;;;;22.42;13.57;;;307.40;1612.80;;;;;;5072749;28;20433;-64
2021/05/04 00:29:59;;;;;;;20.73;14.48;;;307.50;1612.80;;;;;;5073336;28;20372;-64
2021/05/04 00:32:25;;;;;;;19.73;12.63;;;307.40;1638.40;;;;;;5073408;28;20350;-64
2021/05/04 00:34:52;;;;;;;18.50;13.40;;;307.50;1638.40;;;;;;5073377;28;20423;-64
2021/05/04 00:37:18;;;;;;;16.63;13.88;;;307.40;1638.40;;;;;;5073269;28;20365;-64
2021/05/04 00:39:45;;;;;;;15.13;13.10;;;307.50;1612.80;;;;;;5073068;28;20389;-64
2021/05/04 00:42:11;;;;;;;21.13;13.70;;;307.60;1612.80;;;;;;5073294;28;20465;-64
2021/05/04 00:44:37;;;;;;;18.33;13.85;;;307.40;1612.80;;;;;;5073261;28;20403;-78
2021/05/04 00:47:03;;;;;;;16.98;12.98;;;307.20;1664.00;;;;;;5073236;28;20346;-64
2021/05/04 00:49:29;;;;;;;18.70;14.50;;;282.40;1638.40;;;;;;5073181;28;20367;-64
2021/05/04 00:51:56;;;;;;;16.88;13.23;;;282.30;1638.40;;;;;;5073183;28;20399;-64
2021/05/04 00:54:24;;;;;;;17.83;14.60;;;282.30;1664.00;;;;;;5073474;28;20031;-64
2021/05/04 00:56:54;;;;;;;15.98;13.40;;;282.30;1638.40;;;;;;5073177;28;20461;-65
2021/05/04 00:59:24;;;;;;;18.67;13.48;;;282.40;1638.40;;;;;;5073028;28;20415;-64
2021/05/04 01:01:52;;;;;;;17.42;13.70;;;282.50;1638.40;;;;;;5073034;28;20373;-64
2021/05/04 01:04:20;;;;;;;16.77;13.65;;;282.50;1638.40;;;;;;5073127;28;20338;-64
2021/05/04 01:06:46;;;;;;;19.70;13.98;;;282.50;1638.40;;;;;;5073117;28;20365;-64
2021/05/04 01:09:19;;;;;;;20.67;14.02;;;282.40;1638.40;;;;;;5072944;28;20412;-64
2021/05/04 01:11:46;;;;;;;15.68;13.80;;;282.40;1638.40;;;;;;5073043;28;20342;-64
2021/05/04 01:14:13;;;;;;;15.60;12.93;;;282.50;1638.40;;;;;;5072930;28;20469;-64
2021/05/04 01:16:46;;;;;;;16.17;13.20;;;282.40;1638.40;;;;;;5072974;28;20372;-64
2021/05/04 01:19:12;;;;;;;21.20;12.73;;;282.50;1612.80;;;;;;5072802;28;20358;-64
2021/05/04 01:21:38;;;;;;;20.08;15.00;;;282.50;1612.80;;;;;;5072861;28;20362;-64
2021/05/04 01:24:05;;;;;;;17.88;13.93;;;282.40;1638.40;;;;;;5072863;28;20407;-64
2021/05/04 01:26:31;;;;;;;21.50;14.63;;;282.40;1638.40;;;;;;5072887;28;20457;-64
2021/05/04 01:28:57;;;;;;;17.17;13.73;;;282.30;1638.40;;;;;;5072838;28;20374;-64
2021/05/04 01:31:23;;;;;;;20.15;14.48;;;282.10;1664.00;;;;;;5072860;28;20427;-64
2021/05/04 01:33:49;;;;;;;18.58;15.32;;;282.10;1664.00;;;;;;5071495;28;20480;-64
2021/05/04 01:36:16;;;;;;;17.63;14.18;;;282.10;1664.00;;;;;;5072998;28;20338;-64
2021/05/04 01:38:43;;;;;;;18.45;15.05;;;282.00;1689.60;;;;;;5075260;28;20445;-64
2021/05/04 01:41:09;;;;;;;17.92;15.35;;;281.90;1689.60;;;;;;5076511;28;20450;-64
2021/05/04 01:43:35;;;;;;;17.52;13.82;;;282.00;1664.00;;;;;;5076272;28;20334;-64
2021/05/04 01:46:01;;;;;;;23.08;14.65;;;282.10;1664.00;;;;;;5076206;28;20361;-64
2021/05/04 01:48:27;;;;;;;17.48;14.23;;;281.80;1689.60;;;;;;5076060;28;20361;-64
2021/05/04 01:50:53;;;;;;;18.73;14.18;;;281.70;1689.60;;;;;;5076102;28;20400;-64
2021/05/04 01:53:19;;;;;;;21.15;14.77;;;281.60;1715.20;;;;;;5076040;28;20360;-64
2021/05/04 01:55:45;;;;;;;18.35;14.25;;;281.60;1715.20;;;;;;5075944;28;20437;-64
2021/05/04 01:58:12;;;;;;;21.63;15.30;;;281.60;1715.20;;;;;;5074838;28;20469;-64
2021/05/04 02:00:38;;;;;;;20.75;15.55;;;281.60;1715.20;;;;;;5075948;28;20388;-64
2021/05/04 02:03:04;;;;;;;17.25;14.40;;;281.60;1715.20;;;;;;5075965;28;20423;-64
2021/05/04 02:05:31;;;;;;;19.02;14.07;;;281.60;1715.20;;;;;;5075825;28;20020;-64
2021/05/04 02:07:57;;;;;;;18.58;13.52;;;281.60;1715.20;;;;;;5076072;28;20400;-64
2021/05/04 02:10:23;;;;;;;18.70;14.13;;;281.70;1689.60;;;;;;5075708;28;20462;-64
2021/05/04 02:12:49;;;;;;;20.73;14.98;;;281.70;1689.60;;;;;;5075709;28;20350;-64
2021/05/04 02:15:16;;;;;;;19.90;14.13;;;281.70;1689.60;;;;;;5074407;28;20366;-64
2021/05/04 02:17:42;;;;;;;18.38;14.18;;;281.70;1689.60;;;;;;5075627;28;20475;-64
2021/05/04 02:20:10;;;;;;;20.92;14.32;;;281.70;1715.20;;;;;;5075449;28;20460;-64
2021/05/04 02:22:36;;;;;;;19.55;13.90;;;281.80;1689.60;;;;;;5075557;28;20439;-64
2021/05/04 02:25:04;;;;;;;21.33;14.40;;;281.80;1689.60;;;;;;5075424;28;20024;-64
2021/05/04 02:27:30;;;;;;;20.90;14.38;;;281.80;1689.60;;;;;;5075482;28;20405;-64
2021/05/04 02:29:56;;;;;;;27.05;17.00;;;281.70;1689.60;;;;;;5075426;28;20412;-64
2021/05/04 02:32:23;;;;;;;24.45;17.40;;;281.70;1689.60;;;;;;5075334;28;20373;-64
2021/05/04 02:34:49;;;;;;;33.72;18.55;;;281.70;1689.60;;;;;;5075240;28;20024;-64
2021/05/04 02:37:15;;;;;;;29.67;18.23;;;281.60;1715.20;;;;;;5075284;28;20370;-64
2021/05/04 02:39:41;;;;;;;29.27;17.85;;;256.80;1689.60;;;;;;5074927;28;20361;-64
2021/05/04 02:42:07;;;;;;;31.77;20.15;;;256.90;1689.60;;;;;;5075253;28;20378;-64
2021/05/04 02:44:33;;;;;;;28.55;19.27;;;256.70;1689.60;;;;;;5075130;28;20364;-64
2021/05/04 02:46:59;;;;;;;34.45;20.25;;;256.60;1715.20;;;;;;5075094;28;20404;-64
2021/05/04 02:49:25;;;;;;;29.13;18.17;;;256.60;1715.20;;;;;;5074229;28;20541;-64
2021/05/04 02:51:51;;;;;;;33.42;18.80;;;256.60;1715.20;;;;;;5074944;28;20357;-64
2021/05/04 02:54:17;;;;;;;36.03;20.25;;;256.60;1715.20;;;;;;5074878;28;20389;-64
2021/05/04 02:56:43;;;;;;;29.75;18.63;;;256.60;1715.20;;;;;;5074860;28;20384;-64
2021/05/04 02:59:09;;;;;;;28.77;18.13;;;256.40;1715.20;;;;;;5074733;28;20515;-64
2021/05/04 03:01:35;;;;;;;27.95;18.40;;;256.30;1740.80;;;;;;5075082;28;20407;-65
2021/05/04 03:04:02;;;;;;;37.53;19.83;;;256.30;1766.40;;;;;;5074627;28;20416;-64
2021/05/04 03:06:28;;;;;;;41.58;21.75;;;256.30;1766.40;;;;;;5074629;28;20353;-64
2021/05/04 03:08:55;;;;;;;36.47;20.35;;;256.40;1740.80;;;;;;5074653;28;20404;-64
2021/05/04 03:11:21;;;;;;;34.28;18.85;;;256.40;1740.80;;;;;;5074525;28;20465;-64
2021/05/04 03:13:47;;;;;;;40.50;20.48;;;256.30;1740.80;;;;;;5074462;28;20406;-65
2021/05/04 03:16:13;;;;;;;37.08;21.38;;;256.30;1740.80;;;;;;5074648;28;20357;-64
2021/05/04 03:18:39;;;;;;;39.10;22.52;;;256.30;1766.40;;;;;;5074372;28;20408;-64
2021/05/04 03:21:05;;;;;;;38.05;22.42;;;256.30;1740.80;;;;;;5074311;28;20399;-64
2021/05/04 03:23:32;;;;;;;31.63;18.63;;;256.10;1766.40;;;;;;5074355;28;20373;-65
2021/05/04 03:25:58;;;;;;;31.02;18.00;;;231.30;2176.00;;;;;;5074551;28;20094;-64
2021/05/04 03:28:24;;;;;;;33.65;16.85;;;231.10;1817.60;;;;;;5074226;28;20409;-64
2021/05/04 03:30:50;;;;;;;28.50;16.20;;;231.00;1868.80;;;;;;5074137;28;20373;-65
2021/05/04 03:33:16;;;;;;;47.60;22.92;;;231.10;1894.40;;;;;;5074164;28;20346;-65
2021/05/04 03:35:42;;;;;;;60.05;26.38;;;231.30;1843.20;;;;;;5074029;28;20372;-65
2021/05/04 03:38:08;;;;;;;61.88;29.30;;;231.20;1868.80;;;;;;5073807;28;20409;-64
2021/05/04 03:40:35;;;;;;;55.45;28.20;;;231.00;1868.80;;;;;;5074014;28;20457;-64
2021/05/04 03:43:02;;;;;;;51.40;27.38;;;231.00;1868.80;;;;;;5074432;28;20369;-64
2021/05/04 03:45:29;;;;;;;43.85;24.50;;;231.10;1868.80;;;;;;5074164;28;20453;-79
2021/05/04 03:47:56;;;;;;;40.88;22.88;;;231.10;1868.80;;;;;;5073924;28;20370;-64
2021/05/04 03:50:24;;;;;;;30.23;19.63;;;231.00;1868.80;;;;;;5073798;28;20453;-64
2021/05/04 03:52:51;;;;;;;23.83;16.85;;;231.00;1868.80;;;;;;5073824;28;20369;-64
2021/05/04 03:55:19;;;;;;;27.13;18.00;;;231.00;1894.40;;;;;;5073833;28;20495;-64
2021/05/04 03:57:45;;;;;;;26.38;16.25;;;231.00;1868.80;;;;;;5073677;28;20365;-65
2021/05/04 04:00:13;;;;;;;23.85;16.25;;;231.00;1868.80;;;;;;5073617;28;20426;-64
2021/05/04 04:02:39;;;;;;;21.58;15.05;;;231.00;1868.80;;;;;;5073684;28;20461;-64
2021/05/04 04:05:06;;;;;;;20.15;15.18;;;231.20;1843.20;;;;;;5073661;28;20457;-64
2021/05/04 04:07:33;;;;;;;23.75;14.50;;;231.10;1843.20;;;;;;5074252;28;20473;-64
2021/05/04 04:09:59;;;;;;;25.55;15.07;;;231.20;1817.60;;;;;;5073644;28;20480;-65
2021/05/04 04:12:25;;;;;;;28.90;15.68;;;231.30;1817.60;;;;;;5073588;28;20414;-64
2021/05/04 04:14:53;;;;;;;22.38;15.10;;;231.30;1817.60;;;;;;5073129;28;20369;-64
2021/05/04 04:17:20;;;;;;;28.98;16.45;;;231.30;1817.60;;;;;;5073504;28;20492;-64
2021/05/04 04:19:46;;;;;;;30.30;16.27;;;231.30;1817.60;;;;;;5073419;28;20377;-64
2021/05/04 04:22:13;;;;;;;31.35;17.27;;;231.30;1817.60;;;;;;5073459;28;20012;-65
2021/05/04 04:24:39;;;;;;;27.77;16.73;;;231.30;1843.20;;;;;;5073426;28;20460;-65
2021/05/04 04:27:05;;;;;;;30.65;16.83;;;231.30;1868.80;;;;;;5073345;28;20480;-65
2021/05/04 04:29:33;;;;;;;23.45;15.13;;;231.30;1843.20;;;;;;5073414;28;20465;-64
2021/05/04 04:32:01;;;;;;;24.90;15.88;;;256.10;1817.60;;;;;;5073372;28;20021;-64
2021/05/04 04:34:28;;;;;;;26.92;16.45;;;256.20;1817.60;;;;;;5073401;28;20583;-64
2021/05/04 04:36:55;;;;;;;23.45;15.20;;;256.20;1817.60;;;;;;5073354;28;20392;-64
2021/05/04 04:39:21;;;;;;;24.20;14.07;;;256.30;1817.60;;;;;;5073093;28;20489;-64
2021/05/04 04:41:48;;;;;;;23.73;14.20;;;256.50;1792.00;;;;;;5073267;28;20404;-64
2021/05/04 04:44:14;;;;;;;21.77;14.52;;;256.60;1792.00;;;;;;5073269;28;20342;-64
2021/05/04 04:46:40;;;;;;;20.20;13.93;;;256.70;1766.40;;;;;;5073266;28;20532;-64
2021/05/04 04:49:14;;;;;;;21.80;14.32;;;256.80;1740.80;;;;;;5071994;28;20396;-64
2021/05/04 04:51:41;;;;;;;18.38;13.63;;;281.60;1766.40;;;;;;5073519;28;20392;-64
2021/05/04 04:54:07;;;;;;;23.00;15.30;;;281.60;1792.00;;;;;;5073236;28;20404;-64
2021/05/04 04:56:34;;;;;;;19.35;13.20;;;281.70;1766.40;;;;;;5073101;28;20492;-64
2021/05/04 04:59:01;;;;;;;16.50;12.57;;;281.70;1766.40;;;;;;5073368;28;20475;-64
2021/05/04 05:01:27;;;;;;;17.90;13.25;;;281.80;1766.40;;;;;;5073043;28;20409;-64
2021/05/04 05:03:53;;;;;;;17.08;12.90;;;281.90;1766.40;;;;;;5073022;28;20376;-64
2021/05/04 05:06:19;;;;;;;17.05;12.32;;;282.00;1766.40;;;;;;5073039;28;20400;-64
2021/05/04 05:08:47;;;;;;;15.48;11.80;;;282.00;1766.40;;;;;;5073041;28;20453;-64
2021/05/04 05:11:13;;;;;;;16.55;12.90;;;282.10;1766.40;;;;;;5072993;28;20408;-64
2021/05/04 05:13:39;;;;;;;17.52;12.90;;;282.10;1766.40;;;;;;5075881;28;20515;-64
2021/05/04 05:16:05;;;;;;;14.93;12.13;;;282.20;1766.40;;;;;;5076765;28;20400;-64
2021/05/04 05:18:33;;;;;;;15.48;12.65;;;282.30;1740.80;;;;;;5076733;28;20350;-64
2021/05/04 05:20:59;;;;;;;16.25;13.45;;;282.30;1766.40;;;;;;5076870;28;20354;-62
2021/05/04 05:23:26;;;;;;;16.42;13.30;;;282.30;1740.80;;;;;;5076578;28;20369;-62
2021/05/04 05:25:52;;;;;;;17.48;13.07;;;282.40;1740.80;;;;;;5076418;28;20409;-62
2021/05/04 05:28:18;;;;;;;16.30;13.45;;;282.40;1740.80;;;;;;5076389;28;20518;-74
2021/05/04 05:30:45;;;;;;;18.25;13.93;;;282.50;1766.40;;;;;;5076351;28;20389;-75
2021/05/04 05:33:11;;;;;;;21.30;14.45;;;307.20;1766.40;;;;;;5076244;28;20417;-62
2021/05/04 05:35:37;;;;;;;18.02;15.07;;;307.20;1792.00;;;;;;5076198;28;20411;-75
2021/05/04 05:38:05;;;;;;;18.67;14.35;;;307.20;1792.00;;;;;;5075987;28;20424;-62
2021/05/04 05:40:32;;;;;;;27.60;15.85;;;307.30;1766.40;;;;;;5076034;28;20496;-62
2021/05/04 05:42:58;;;;;;;22.58;15.50;;;307.40;1766.40;;;;;;5076145;28;20370;-76
2021/05/04 05:45:24;;;;;;;19.48;15.00;;;307.50;1766.40;;;;;;5076201;28;20405;-75
2021/05/04 05:47:50;;;;;;;21.13;15.00;;;307.60;1766.40;;;;;;5076793;28;20345;-65
2021/05/04 05:50:18;;;;;;;19.25;14.82;;;307.60;1740.80;;;;;;5076248;28;20458;-66
2021/05/04 05:52:44;;;;;;;18.80;14.85;;;307.70;1766.40;;;;;;5076352;28;20369;-67
2021/05/04 05:55:10;;;;;;;18.05;14.38;;;307.70;1766.40;;;;;;5075993;28;20369;-64
2021/05/04 05:57:36;;;;;;;18.55;14.63;;;307.80;1766.40;;;;;;5076206;28;20415;-75
2021/05/04 06:00:07;;;;;;;19.30;15.02;;;307.90;1740.80;;;;;;5075857;28;20120;-78
2021/05/04 06:02:33;;;;;;;20.65;15.40;;;308.00;1740.80;;;;;;5075969;28;20357;-71
2021/05/04 06:04:59;;;;;;;21.13;15.38;;;308.10;1740.80;;;;;;5075941;28;20361;-67
2021/05/04 06:07:25;;;;;;;19.92;16.35;;;332.80;1766.40;;;;;;5076086;28;20403;-66
2021/05/04 06:13:13;;;;;;;19.20;15.10;;;333.00;1766.40;;;;;;5075818;28;20031;-68
2021/05/04 06:15:40;;;;;;;21.58;17.00;;;333.10;1740.80;;;;;;5074561;28;20377;-77
2021/05/04 06:18:07;;;;;;;20.88;16.50;;;333.20;1766.40;;;;;;5075665;28;20449;-72
2021/05/04 06:20:34;;;;;;;20.60;17.40;;;333.40;1740.80;;;;;;5076238;28;20481;-70
2021/05/04 06:23:01;;;;;;;22.55;18.15;;;333.50;1740.80;;;;;;5075568;28;20454;-76
2021/05/04 06:25:27;;;;;;;20.65;14.23;;;333.70;1715.20;;;;;;5074438;28;20361;-76
2021/05/04 06:27:54;;;;;;;19.73;14.35;;;358.40;1664.00;;;;;;5075498;28;20350;-67
2021/05/04 06:30:20;;;;;;;19.15;15.60;;;358.60;1638.40;;;;;;5075444;28;20479;-68
2021/05/04 06:32:48;;;;;;;18.77;14.77;;;358.70;1638.40;;;;;;5075361;28;20111;-66
2021/05/04 06:35:19;;;;;;;22.08;15.95;;;358.90;1638.40;;;;;;5075333;28;20082;-67
2021/05/04 06:37:46;;;;;;;19.33;13.93;;;359.10;1587.20;;;;;;5075666;28;20369;-67
2021/05/04 06:40:13;;;;;;;22.38;14.00;;;359.20;1510.40;;;;;;5073930;28;20480;-67
2021/05/04 06:42:40;;;;;;;24.90;15.07;;;384.00;1536.00;;;;;;5075238;28;20052;-69
2021/05/04 06:45:07;;;;;;;21.10;14.50;;;384.20;1484.80;;;;;;5075155;28;20428;-68
2021/05/04 06:47:33;;;;;;;25.13;14.15;;;384.50;1433.60;;;;;;5074945;28;20350;-67
2021/05/04 06:49:59;;;;;;;24.05;14.88;;;384.60;1433.60;;;;;;5074869;28;20396;-67
2021/05/04 06:52:26;;;;;;;18.33;12.65;;;384.80;1433.60;;;;;;5075522;28;20434;-72
2021/05/04 06:54:52;;;;;;;16.15;10.55;;;409.60;1408.00;;;;;;5074844;28;20461;-71
2021/05/04 06:57:19;;;;;;;17.65;9.10;;;409.70;1356.80;;;;;;5074866;28;20373;-65
2021/05/04 06:59:45;;;;;;;13.55;8.18;;;409.90;1305.60;;;;;;5075012;28;20047;-65
2021/05/04 07:02:11;;;;;;;18.80;8.15;;;409.90;1254.40;;;;;;5074732;28;20419;-65
2021/05/04 07:04:37;;;;;;;10.98;8.15;;;410.00;1280.00;;;;;;5074647;28;20376;-65
2021/05/04 07:07:04;;;;;;;12.57;7.85;;;410.20;1305.60;;;;;;5074698;28;20415;-65
2021/05/04 07:09:30;;;;;;;13.65;7.65;;;410.30;1254.40;;;;;;5074390;28;20419;-68
2021/05/04 07:11:56;;;;;;;13.35;7.13;;;410.40;1228.80;;;;;;5074342;28;20350;-66
2021/05/04 07:14:22;;;;;;;10.07;5.82;;;410.50;1152.00;;;;;;5074243;28;20493;-66
2021/05/04 07:16:48;;;;;;;11.23;5.63;;;435.20;1100.80;;;;;;5074186;28;20373;-65
2021/05/04 07:19:16;;;;;;;11.02;5.80;;;435.20;1075.20;;;;;;5073040;28;20385;-65
2021/05/04 07:21:42;;;;;;;10.80;6.43;;;435.20;1126.40;;;;;;5074341;28;20373;-64
2021/05/04 07:24:08;;;;;;;11.23;6.40;;;435.20;1100.80;;;;;;5074363;28;20024;-65
2021/05/04 07:26:35;;;;;;;10.85;5.85;;;435.30;1075.20;;;;;;5074264;28;20025;-64
2021/05/04 07:29:01;;;;;;;10.00;5.50;;;435.40;1049.60;;;;;;5074571;28;20456;-68
2021/05/04 07:31:30;;;;;;;10.70;5.55;;;435.50;1024.00;;;;;;5074143;28;20369;-65
2021/05/04 07:33:57;;;;;;;9.70;5.22;;;435.40;1049.60;;;;;;5074309;28;20041;-65
2021/05/04 07:36:25;;;;;;;14.93;6.15;;;435.50;1049.60;;;;;;5073811;28;20419;-64
2021/05/04 07:38:51;;;;;;;10.95;5.03;;;435.60;1100.80;;;;;;5074211;28;20399;-66
2021/05/04 07:41:17;;;;;;;7.35;4.80;;;435.60;1049.60;;;;;;5074000;28;20423;-65
2021/05/04 07:43:44;;;;;;;11.27;5.03;;;435.70;1049.60;;;;;;5074022;28;20534;-65
2021/05/04 07:46:10;;;;;;;11.02;5.40;;;435.70;1024.00;;;;;;5073869;28;20358;-65
2021/05/04 07:48:36;;;;;;;8.65;4.53;;;435.80;998.40;;;;;;5073955;28;20377;-64
2021/05/04 07:51:04;;;;;;;13.48;4.63;;;435.80;1024.00;;;;;;5073809;28;20456;-65
2021/05/04 07:53:31;;;;;;;7.88;4.53;;;435.90;998.40;;;;;;5073708;28;20373;-68
2021/05/04 07:55:57;;;;;;;11.25;4.70;;;435.90;972.80;;;;;;5073725;28;20435;-65
2021/05/04 07:58:24;;;;;;;9.23;4.70;;;436.00;947.20;;;;;;5073730;28;20457;-64
2021/05/04 08:00:50;;;;;;;12.80;4.43;;;436.00;947.20;;;;;;5072472;28;20453;-65
2021/05/04 08:03:16;;;;;;;11.30;4.50;;;436.10;972.80;;;;;;5073924;28;20369;-64
2021/05/04 08:05:42;;;;;;;7.28;4.28;;;436.10;947.20;;;;;;5073647;28;20446;-65
2021/05/04 08:08:13;;;;;;;8.60;4.63;;;460.80;998.40;;;;;;5073684;28;20528;-65
2021/05/04 08:10:40;;;;;;;7.13;3.97;;;460.80;972.80;;;;;;5073564;28;20347;-65
2021/05/04 08:13:06;;;;;;;8.15;4.07;;;460.80;972.80;;;;;;5073573;28;20359;-65
2021/05/04 08:15:33;;;;;;;7.85;4.07;;;460.90;947.20;;;;;;5073513;28;20437;-65
2021/05/04 08:18:10;;;;;;;9.45;4.10;;;460.90;998.40;;;;;;5073488;28;20368;-65
2021/05/04 08:20:44;;;;;;;8.23;4.00;;;461.00;947.20;;;;;;5073468;28;20362;-72
2021/05/04 08:23:10;;;;;;;7.60;3.85;;;461.00;972.80;;;;;;5073492;28;20385;-64
2021/05/04 08:25:36;;;;;;;7.13;3.90;;;461.00;972.80;;;;;;5073737;28;20410;-66
2021/05/04 08:28:03;;;;;;;7.03;3.90;;;461.10;947.20;;;;;;5073647;28;20466;-65
2021/05/04 08:30:29;;;;;;;7.57;3.40;;;461.00;947.20;;;;;;5073394;28;20360;-65
2021/05/04 08:32:55;;;;;;;5.65;3.55;;;461.10;998.40;;;;;;5073360;28;20373;-64
2021/05/04 08:35:24;;;;;;;7.25;3.83;;;461.20;972.80;;;;;;5073353;28;20549;-65
2021/05/04 08:37:51;;;;;;;7.80;4.22;;;461.20;972.80;;;;;;5073073;28;20385;-65
2021/05/04 08:40:17;;;;;;;8.88;4.22;;;461.20;1024.00;;;;;;5073299;28;20408;-65
2021/05/04 08:42:43;;;;;;;7.43;3.65;;;461.20;947.20;;;;;;5073344;28;20361;-65
2021/05/04 08:45:10;;;;;;;7.80;4.63;;;461.20;998.40;;;;;;5073274;28;20455;-65
2021/05/04 08:47:37;;;;;;;9.18;4.25;;;461.40;1024.00;;;;;;5074729;28;20343;-64
2021/05/04 08:50:03;;;;;;;12.63;3.88;;;461.40;998.40;;;;;;5077537;28;20369;-65
2021/05/04 08:52:30;;;;;;;6.18;3.75;;;461.50;972.80;;;;;;5077223;28;20463;-64
2021/05/04 08:54:56;;;;;;;6.82;3.80;;;461.50;998.40;;;;;;5077252;28;20013;-65
2021/05/04 08:57:22;;;;;;;4.70;3.38;;;461.50;972.80;;;;;;5077099;28;20368;-64
2021/05/04 08:59:48;;;;;;;12.90;3.42;;;461.50;998.40;;;;;;5077004;28;20373;-65
2021/05/04 09:02:15;;;;;;;7.18;3.22;;;461.50;972.80;;;;;;5077058;28;20479;-65
2021/05/04 09:04:48;;;;;;;11.10;3.83;;;461.60;972.80;;;;;;5077253;28;20036;-70
2021/05/04 09:07:17;;;;;;;8.25;2.90;;;461.60;1024.00;;;;;;5077018;28;20017;-65
2021/05/04 09:10:03;;;;;;;10.32;4.00;;;461.70;1049.60;;;;;;5076875;28;20542;-68
2021/05/04 09:12:38;;;;;;;6.88;3.95;;;486.40;1100.80;;;;;;5076775;28;20399;-66
2021/05/04 09:15:47;;;;;;;7.95;4.30;;;486.40;1024.00;;;;;;5076758;28;20395;-70
2021/05/04 09:21:30;;;;;;;10.52;4.28;;;486.40;972.80;;;;;;5014906;28;20054;-68
2021/05/04 09:23:58;;;;;;;8.98;3.90;;;486.50;998.40;;;;;;5014666;28;20411;-65
2021/05/04 09:26:35;;;;;;;9.07;4.15;;;486.50;1075.20;;;;;;5014876;28;20045;-65
2021/05/04 09:29:08;;;;;;;7.47;3.63;;;486.50;1024.00;;;;;;5014596;28;20348;-65
2021/05/04 09:31:36;;;;;;;6.05;3.72;;;486.50;998.40;;;;;;5015228;28;20491;-65
2021/05/04 09:34:14;;;;;;;5.35;3.70;;;486.50;998.40;;;;;;5014636;28;20564;-65
2021/05/04 09:36:49;;;;;;;8.48;3.75;;;486.50;947.20;;;;;;5014461;28;20407;-65
2021/05/04 09:39:25;;;;;;;7.70;3.47;;;486.50;947.20;;;;;;5014290;28;20360;-65
2021/05/04 09:41:54;;;;;;;5.63;3.45;;;486.50;1024.00;;;;;;5014432;28;20487;-66
2021/05/04 09:44:55;;;;;;;7.07;4.00;;;486.50;972.80;;;;;;5014371;28;20463;-65
2021/05/04 09:47:24;;;;;;;11.88;4.00;;;486.60;947.20;;;;;;4975231;28;20380;-65
2021/05/04 09:49:51;;;;;;;6.07;3.45;;;486.60;947.20;;;;;;4975357;28;20459;-66
2021/05/04 09:52:33;;;;;;;7.32;3.92;;;486.70;972.80;;;;;;4975350;28;20416;-65
2021/05/04 09:55:05;;;;;;;7.18;4.32;;;486.70;972.80;;;;;;4975180;28;20404;-65
2021/05/04 09:57:42;;;;;;;7.93;3.42;;;486.70;972.80;;;;;;4979425;28;20435;-65
2021/05/04 10:00:11;;;;;;;9.73;4.20;;;486.80;998.40;;;;;;4994316;28;20379;-66
2021/05/04 10:02:38;;;;;;;12.38;3.63;;;486.80;972.80;;;;;;4994573;28;20416;-69
2021/05/04 10:05:07;;;;;;;8.93;3.05;;;486.80;998.40;;;;;;4994425;28;20356;-71
2021/05/04 10:07:33;;;;;;;8.32;3.70;;;486.90;972.80;;;;;;4994300;28;20483;-72
2021/05/04 10:10:01;;;;;;;11.55;3.78;;;486.90;972.80;;;;;;4994930;28;20506;-69
2021/05/04 10:12:31;;;;;;;9.52;3.25;;;486.90;947.20;;;;;;4994866;28;20517;-68
2021/05/04 10:15:01;;;;;;;6.75;3.10;;;487.00;998.40;;;;;;4994462;28;20483;-67
2021/05/04 10:17:31;;;;;;;7.03;3.60;;;487.00;947.20;;;;;;4994692;28;20475;-68
2021/05/04 10:19:58;;;;;;;6.65;3.42;;;487.10;972.80;;;;;;4994256;28;20415;-70
2021/05/04 10:22:24;;;;;;;7.82;3.50;;;487.10;972.80;;;;;;5072121;28;20488;-67
2021/05/04 10:24:51;;;;;;;6.60;3.35;;;487.10;998.40;;;;;;5075510;28;20419;-63
2021/05/04 10:27:20;;;;;;;7.38;3.90;;;487.10;947.20;;;;;;5075567;28;20350;-71
2021/05/04 10:29:50;;;;;;;6.88;2.97;;;487.10;921.60;;;;;;5075358;28;20361;-70
2021/05/04 10:32:36;;;;;;;10.98;3.67;;;487.20;947.20;;;;;;5075977;28;20465;-68
2021/05/04 10:35:29;;;;;;;7.18;3.70;;;487.20;947.20;;;;;;5075115;28;20434;-67
2021/05/04 10:37:57;;;;;;;17.25;4.03;;;487.20;972.80;;;;;;5074751;28;20427;-71
2021/05/04 10:40:30;;;;;;;8.98;4.05;;;487.30;998.40;;;;;;5075030;28;20449;-69
2021/05/04 10:43:19;;;;;;;10.63;3.63;;;487.30;1024.00;;;;;;5075410;28;20360;-68
2021/05/04 10:45:45;;;;;;;11.05;3.78;;;512.00;998.40;;;;;;5074934;28;20373;-66
2021/05/04 10:48:11;;;;;;;11.18;3.70;;;512.10;1024.00;;;;;;5075681;28;20017;-66
2021/05/04 10:50:52;;;;;;;7.57;3.88;;;512.20;972.80;;;;;;5075047;28;20346;-67
2021/05/04 10:53:25;;;;;;;11.77;3.70;;;512.20;972.80;;;;;;5074968;28;20361;-67
2021/05/04 10:55:54;;;;;;;9.60;3.80;;;512.10;947.20;;;;;;5074983;28;20384;-66
2021/05/04 10:58:20;;;;;;;9.45;4.78;;;512.20;947.20;;;;;;5075114;28;20431;-67
2021/05/04 11:00:52;;;;;;;6.53;3.90;;;512.30;947.20;;;;;;5074737;28;20432;-66
2021/05/04 11:03:33;;;;;;;14.75;3.38;;;512.30;947.20;;;;;;5074783;28;20415;-67
2021/05/04 11:06:00;;;;;;;49.20;4.57;;;512.40;972.80;;;;;;5074707;28;20369;-67
2021/05/04 11:08:44;;;;;;;7.00;3.05;;;512.40;896.00;;;;;;5074709;28;20399;-66
2021/05/04 11:11:23;;;;;;;;;;;512.40;947.20;;;;;;5074340;28;20420;-66
2021/05/04 11:13:51;;;;;;;6.13;2.80;;;512.50;921.60;;;;;;5074530;28;20241;-67
2021/05/04 11:16:46;;;;;;;13.63;3.75;;;512.50;921.60;;;;;;5074628;28;20412;-67
2021/05/04 11:19:17;;;;;;;12.25;3.65;;;512.50;921.60;;;;;;5074424;28;20373;-67
2021/05/04 11:22:05;;;;;;;12.85;3.33;;;512.50;921.60;;;;;;5074696;28;20395;-69
2021/05/04 11:24:35;;;;;;;3.75;2.90;;;512.60;972.80;;;;;;5074434;28;20465;-69
2021/05/04 11:27:12;;;;;;;8.77;3.75;;;512.60;972.80;;;;;;5074563;28;20342;-70
2021/05/04 11:29:41;;;;;;;8.10;3.42;;;512.70;896.00;;;;;;5074299;28;20047;-70
2021/05/04 11:32:12;;;;;;;5.43;3.30;;;512.80;947.20;;;;;;5074118;28;20400;-70
2021/05/04 11:34:45;;;;;;;11.23;2.45;;;512.90;972.80;;;;;;5074123;28;20362;-71
2021/05/04 11:37:35;;;;;;;;;;;512.80;870.40;;;;;;5074462;28;20333;-69
2021/05/04 11:40:08;;;;;;;8.68;2.15;;;537.60;896.00;;;;;;5073951;28;20272;-72
2021/05/04 11:42:52;;;;;;;5.03;1.80;;;512.90;870.40;;;;;;5072824;28;20358;-69
2021/05/04 11:45:20;;;;;;;24.42;3.03;;;537.60;921.60;;;;;;5073921;28;20484;-70
2021/05/04 11:47:57;;;;;;;23.25;2.78;;;537.60;947.20;;;;;;5074156;28;20358;-71
2021/05/04 11:50:25;;;;;;;57.83;4.55;;;537.60;921.60;;;;;;5073894;28;20423;-69
2021/05/04 11:53:06;;;;;;;5.30;2.25;;;537.60;921.60;;;;;;5074310;28;20513;-70
2021/05/04 11:55:43;;;;;;;7.80;2.28;;;537.60;896.00;;;;;;5073849;28;20362;-69
2021/05/04 11:58:14;;;;;;;5.88;1.92;;;537.70;921.60;;;;;;5072631;28;20388;-70
2021/05/04 12:00:41;;;;;;;16.50;2.67;;;537.70;921.60;;;;;;5074062;28;20482;-68
2021/05/04 12:03:16;;;;;;;7.57;2.03;;;537.70;896.00;;;;;;5073338;28;20414;-68
2021/05/04 12:05:44;;;;;;;9.93;2.65;;;537.80;896.00;;;;;;5073720;28;20380;-68
2021/05/04 12:08:11;;;;;;;13.73;2.22;;;537.90;870.40;;;;;;5073709;28;20449;-68
2021/05/04 12:10:49;;;;;;;6.28;1.80;;;537.80;870.40;;;;;;5073635;28;20024;-68
2021/05/04 12:13:25;;;;;;;6.28;2.25;;;537.90;896.00;;;;;;5073658;28;20338;-60
2021/05/04 12:15:54;;;;;;;101.70;6.13;;;538.00;921.60;;;;;;5073641;28;20407;-67
2021/05/04 12:18:23;;;;;;;23.45;2.72;;;538.10;921.60;;;;;;5073621;28;20021;-68
2021/05/04 12:20:51;;;;;;;13.15;2.60;;;538.10;896.00;;;;;;5073399;28;20419;-68